Time;durP1;ratioP1;P1;durP2;ratioP2;P2;SDS_P1;SDS_P2;PMS_P1;PMS_P2;Temp;Humidity;BMP_temperature;BMP_pressure;BME280_temperature;BME280_humidity;BME280_pressure;Samples;Min_cycle;Max_cycle;Signal;HPM_P1;HPM_P2
2023/01/07 00:01:48;;;;;;;12.77;7.28;;;;;;;7.89;100.00;101673.69;5243009;28;20033;-69
2023/01/07 00:04:20;;;;;;;9.60;8.60;;;;;;;7.92;100.00;101672.44;5244362;28;20388;-70
2023/01/07 00:06:51;;;;;;;8.50;7.72;;;;;;;7.86;100.00;101666.06;5247559;28;20078;-69
2023/01/07 00:09:21;;;;;;;9.00;8.30;;;;;;;7.84;100.00;101660.06;5247282;28;20396;-68
2023/01/07 00:11:52;;;;;;;8.13;7.63;;;;;;;7.83;100.00;101661.13;5229064;28;20028;-69
2023/01/07 00:14:22;;;;;;;8.68;7.88;;;;;;;7.82;100.00;101662.16;5246988;28;20020;-68
2023/01/07 00:16:53;;;;;;;8.38;7.78;;;;;;;7.76;100.00;101671.13;5247391;28;20358;-68
2023/01/07 00:19:23;;;;;;;7.85;7.13;;;;;;;7.62;100.00;101640.81;5247084;28;20099;-68
2023/01/07 00:21:53;;;;;;;7.03;6.60;;;;;;;7.76;100.00;101663.06;5245261;28;20089;-68
2023/01/07 00:24:24;;;;;;;7.18;6.57;;;;;;;7.80;100.00;101658.84;5247091;28;20520;-69
2023/01/07 00:26:54;;;;;;;7.57;7.05;;;;;;;7.74;100.00;101643.63;5247158;28;20111;-69
2023/01/07 00:29:24;;;;;;;8.90;8.20;;;;;;;7.88;100.00;101655.09;5247481;28;20469;-69
2023/01/07 00:31:55;;;;;;;8.50;7.95;;;;;;;7.91;100.00;101644.72;5229105;28;20112;-68
2023/01/07 00:34:26;;;;;;;11.30;7.68;;;;;;;7.88;100.00;101649.72;5228984;28;20081;-68
2023/01/07 00:37:48;;;;;;;6.88;6.45;;;;;;;7.84;100.00;101654.69;5229292;28;20377;-70
2023/01/07 00:39:46;;;;;;;7.70;7.25;;;;;;;7.87;100.00;101654.25;5246978;28;20063;-69
2023/01/07 00:45:06;;;;;;;8.23;7.68;;;;;;;7.78;100.00;101637.59;5231861;28;20078;-69
2023/01/07 00:47:37;;;;;;;9.90;9.02;;;;;;;7.80;100.00;101640.03;5247042;28;20400;-69
2023/01/07 00:50:07;;;;;;;6.80;6.32;;;;;;;7.74;100.00;101649.00;5246748;28;20074;-69
2023/01/07 00:52:38;;;;;;;7.38;6.88;;;;;;;7.72;100.00;101643.00;5246690;28;20023;-69
2023/01/07 00:55:09;;;;;;;8.38;7.75;;;;;;;7.67;100.00;101637.47;5246837;28;20024;-66
2023/01/07 00:57:44;;;;;;;7.97;7.40;;;;;;;7.72;100.00;101632.25;5246802;28;20036;-69
2023/01/07 01:00:17;;;;;;;8.82;8.00;;;;;;;7.70;100.00;101629.78;5246541;28;20035;-67
2023/01/07 01:02:48;;;;;;;8.32;7.72;;;;;;;7.69;100.00;101621.94;5246660;28;20051;-69
2023/01/07 01:05:19;;;;;;;8.02;7.63;;;;;;;7.69;100.00;101616.56;5246511;28;20107;-69
2023/01/07 01:07:50;;;;;;;7.10;6.43;;;;;;;7.63;100.00;101612.06;5246678;28;20471;-68
2023/01/07 01:10:21;;;;;;;7.35;6.90;;;;;;;7.72;100.00;101608.91;5247086;28;20145;-69
2023/01/07 01:12:51;;;;;;;7.43;6.78;;;;;;;7.76;100.00;101611.97;5245724;28;20017;-68
2023/01/07 01:15:22;;;;;;;8.32;7.63;;;;;;;7.73;100.00;101610.53;5243639;28;20075;-68
2023/01/07 01:17:53;;;;;;;9.57;7.65;;;;;;;7.72;100.00;101603.50;5246170;28;20476;-68
2023/01/07 01:20:23;;;;;;;7.55;6.90;;;;;;;7.69;100.00;101593.19;5246366;28;20039;-68
2023/01/07 01:22:53;;;;;;;10.68;8.15;;;;;;;7.81;100.00;101612.09;5245675;28;20362;-68
2023/01/07 01:25:24;;;;;;;7.80;7.20;;;;;;;7.83;100.00;101607.34;5246059;28;20024;-68
2023/01/07 01:27:54;;;;;;;7.32;6.65;;;;;;;7.73;100.00;101583.66;5245902;28;20230;-68
2023/01/07 01:30:25;;;;;;;7.97;7.50;;;;;;;7.87;100.00;101605.88;5244449;28;20028;-69
2023/01/07 01:32:55;;;;;;;7.32;6.63;;;;;;;7.84;100.00;101589.34;5245363;28;20020;-69
2023/01/07 01:35:26;;;;;;;7.45;6.88;;;;;;;7.84;100.00;101598.22;5245863;28;20047;-68
2023/01/07 01:37:59;;;;;;;7.43;6.78;;;;;;;7.88;100.00;101596.75;5227769;28;20107;-68
2023/01/07 01:40:29;;;;;;;6.90;6.50;;;;;;;7.96;100.00;101592.97;5244586;28;20392;-68
2023/01/07 01:42:59;;;;;;;7.90;7.22;;;;;;;7.97;100.00;101579.31;5245218;28;20025;-69
2023/01/07 01:45:30;;;;;;;6.05;5.57;;;;;;;7.90;100.00;101557.03;5227864;28;20020;-69
2023/01/07 01:48:05;;;;;;;6.63;6.20;;;;;;;8.13;100.00;101599.41;5245541;28;20016;-69
2023/01/07 01:50:43;;;;;;;6.05;5.45;;;;;;;8.13;100.00;101602.94;5227926;28;20073;-69
2023/01/07 01:53:27;;;;;;;7.32;6.82;;;;;;;8.07;100.00;101593.09;5245347;28;20148;-68
2023/01/07 01:56:03;;;;;;;6.43;6.00;;;;;;;8.05;100.00;101591.66;5245794;28;20017;-68
2023/01/07 01:58:48;;;;;;;13.95;7.47;;;;;;;8.08;100.00;101580.47;5245409;28;20400;-69
2023/01/07 02:01:19;;;;;;;7.13;5.85;;;;;;;8.07;100.00;101582.31;5245741;28;20029;-70
2023/01/07 02:03:50;;;;;;;6.05;5.45;;;;;;;8.06;100.00;101569.91;5244630;28;20024;-69
2023/01/07 02:06:27;;;;;;;6.90;6.32;;;;;;;8.23;100.00;101578.22;5227576;28;20115;-68
2023/01/07 02:08:58;;;;;;;7.05;6.38;;;;;;;8.28;100.00;101574.88;5245133;28;20519;-69
2023/01/07 02:12:11;;;;;;;7.15;6.65;;;;;;;8.25;100.00;101569.94;5245402;28;20104;-68
2023/01/07 02:15:06;;;;;;;6.65;6.00;;;;;;;8.29;100.00;101566.56;5160754;28;20061;-68
2023/01/07 02:18:05;;;;;;;6.82;6.32;;;;;;;8.23;100.00;101561.25;5226128;28;20044;-68
2023/01/07 02:20:51;;;;;;;6.82;6.35;;;;;;;8.41;100.00;101580.13;5245345;28;20033;-67
2023/01/07 02:23:57;;;;;;;6.55;6.15;;;;;;;8.44;100.00;101571.59;5244210;28;20035;-68
2023/01/07 02:26:46;;;;;;;5.43;5.07;;;;;;;8.55;100.00;101570.03;5244967;28;20039;-68
2023/01/07 02:29:41;;;;;;;7.57;5.50;;;;;;;8.56;100.00;101572.50;5245116;28;20423;-69
2023/01/07 02:32:14;;;;;;;9.48;5.78;;;;;;;8.55;100.00;101572.72;5244441;28;20028;-68
2023/01/07 02:35:14;;;;;;;6.65;5.78;;;;;;;8.58;100.00;101572.28;5244625;28;20077;-68
2023/01/07 02:38:04;;;;;;;4.75;4.45;;;;;;;8.56;100.00;101558.22;5245225;28;20419;-68
2023/01/07 02:40:42;;;;;;;5.43;5.13;;;;;;;8.64;100.00;101571.38;5244929;28;20106;-69
2023/01/07 02:43:36;;;;;;;6.70;5.88;;;;;;;8.65;100.00;101567.66;5244626;28;20205;-67
2023/01/07 02:46:18;;;;;;;6.82;5.88;;;;;;;8.66;100.00;101559.31;5245003;28;20051;-68
2023/01/07 02:48:50;;;;;;;5.63;5.13;;;;;;;8.61;100.00;101553.00;5226566;28;20509;-68
2023/01/07 02:51:30;;;;;;;9.80;5.65;;;;;;;8.65;100.00;101543.41;5244922;28;20108;-68
2023/01/07 02:54:01;;;;;;;7.32;6.78;;;;;;;8.67;100.00;101557.44;5244348;28;20556;-68
2023/01/07 02:56:32;;;;;;;6.25;5.78;;;;;;;8.64;100.00;101552.53;5226835;28;20020;-68
2023/01/07 02:59:20;;;;;;;7.65;5.78;;;;;;;8.64;100.00;101556.06;5244603;28;20506;-68
2023/01/07 03:02:12;;;;;;;5.72;5.22;;;;;;;8.65;100.00;101541.53;5244553;28;20024;-67
2023/01/07 03:05:02;;;;;;;5.85;5.18;;;;;;;8.64;100.00;101544.47;5244746;28;20028;-67
2023/01/07 03:07:52;;;;;;;4.22;4.05;;;;;;;8.63;100.00;101535.56;5244284;28;20036;-69
2023/01/07 03:10:25;;;;;;;14.75;5.53;;;;;;;8.66;100.00;101534.28;5227342;28;20039;-68
2023/01/07 03:13:03;;;;;;;4.32;4.13;;;;;;;8.68;100.00;101527.59;5244302;28;20021;-68
2023/01/07 03:15:43;;;;;;;6.45;5.00;;;;;;;8.70;100.00;101530.06;5244602;28;20473;-67
2023/01/07 03:18:23;;;;;;;5.28;4.97;;;;;;;8.73;100.00;101521.53;5227272;28;20024;-68
2023/01/07 03:21:00;;;;;;;5.20;4.82;;;;;;;8.73;100.00;101518.84;5245500;28;20536;-68
2023/01/07 03:23:31;;;;;;;7.93;6.03;;;;;;;8.74;100.00;101515.94;5244248;28;20032;-67
2023/01/07 03:26:04;;;;;;;5.10;4.70;;;;;;;8.62;100.00;101482.75;5227281;28;20024;-68
2023/01/07 03:28:40;;;;;;;7.57;5.20;;;;;;;8.77;100.00;101503.88;5245655;28;20032;-68
2023/01/07 03:31:14;;;;;;;6.38;5.88;;;;;;;8.75;100.00;101493.34;5245641;28;20020;-67
2023/01/07 03:33:59;;;;;;;7.47;4.93;;;;;;;8.83;100.00;101504.84;5244128;28;20032;-68
2023/01/07 03:36:37;;;;;;;7.20;5.68;;;;;;;8.81;100.00;101497.00;5245192;28;20020;-69
2023/01/07 03:39:10;;;;;;;6.60;5.10;;;;;;;8.79;100.00;101485.63;5246029;28;20081;-67
2023/01/07 03:44:29;;;;;;;5.47;4.97;;;;;;;8.95;100.00;101498.44;5248448;28;20546;-67
2023/01/07 03:47:00;;;;;;;6.10;5.55;;;;;;;8.94;100.00;101499.50;5248681;28;20028;-67
2023/01/07 03:49:32;;;;;;;6.32;5.25;;;;;;;8.94;100.00;101482.53;5248767;28;20388;-67
2023/01/07 03:52:03;;;;;;;5.13;4.70;;;;;;;8.87;100.00;101471.03;5248288;28;20400;-70
2023/01/07 03:54:33;;;;;;;5.72;4.70;;;;;;;8.97;100.00;101487.44;5248073;28;20029;-68
2023/01/07 03:57:03;;;;;;;6.07;5.68;;;;;;;8.98;100.00;101478.28;5246599;28;20044;-67
2023/01/07 03:59:34;;;;;;;12.50;6.07;;;;;;;8.98;100.00;101483.69;5247843;28;20024;-67
2023/01/07 04:02:04;;;;;;;5.15;4.18;;;;;;;8.90;100.00;101470.56;5247584;28;20640;-67
2023/01/07 04:04:35;;;;;;;5.82;5.15;;;;;;;8.96;100.00;101477.69;5248037;28;20017;-66
2023/01/07 04:07:05;;;;;;;4.78;4.45;;;;;;;8.89;100.00;101477.00;5246037;28;20602;-69
2023/01/07 04:09:36;;;;;;;6.95;4.22;;;;;;;8.90;100.00;101467.88;5248032;28;20055;-68
2023/01/07 04:12:06;;;;;;;6.35;5.75;;;;;;;8.83;100.00;101467.13;5247368;28;20480;-68
2023/01/07 04:14:36;;;;;;;9.35;4.93;;;;;;;8.74;100.00;101462.06;5247359;28;20457;-67
2023/01/07 04:17:07;;;;;;;6.07;5.22;;;;;;;8.53;100.00;101424.91;5248383;28;20025;-67
2023/01/07 04:19:38;;;;;;;5.10;4.60;;;;;;;8.66;100.00;101451.63;5248467;28;20099;-66
2023/01/07 04:22:09;;;;;;;4.13;3.85;;;;;;;8.52;100.00;101436.72;5255976;23;20519;-65
2023/01/07 04:24:40;;;;;;;4.88;4.28;;;;;;;8.49;100.00;101450.63;5252304;28;20028;-65
2023/01/07 04:27:10;;;;;;;4.35;4.15;;;;;;;8.39;100.00;101437.69;5248373;28;20150;-64
2023/01/07 04:29:41;;;;;;;5.25;4.28;;;;;;;8.39;100.00;101444.94;5248040;28;20028;-65
2023/01/07 04:32:11;;;;;;;4.10;3.90;;;;;;;8.41;100.00;101442.84;5249015;28;20028;-65
2023/01/07 04:34:41;;;;;;;5.30;4.90;;;;;;;8.41;100.00;101430.22;5248024;28;20073;-64
2023/01/07 04:37:12;;;;;;;4.40;4.10;;;;;;;8.45;100.00;101435.97;5249219;28;20384;-64
2023/01/07 04:39:42;;;;;;;4.28;3.97;;;;;;;8.49;100.00;101430.97;5249240;28;20024;-65
2023/01/07 04:42:12;;;;;;;3.47;3.28;;;;;;;8.52;100.00;101423.25;5248531;28;20032;-65
2023/01/07 04:44:43;;;;;;;4.60;4.20;;;;;;;8.49;100.00;101420.19;5264321;22;20008;-92
2023/01/07 04:47:13;;;;;;;3.38;3.17;;;;;;;8.15;100.00;101390.19;5177324;28;20479;-92
2023/01/07 04:49:44;;;;;;;4.68;4.28;;;;;;;7.33;100.00;101230.34;5159830;28;20025;-91
2023/01/07 04:52:14;;;;;;;8.80;5.32;;;;;;;6.92;100.00;101150.50;5141631;28;20081;-90
2023/01/07 04:54:44;;;;;;;4.63;4.32;;;;;;;7.05;100.00;101187.91;5139720;28;20050;-91
2023/01/07 04:57:15;;;;;;;5.57;4.78;;;;;;;8.59;100.00;101402.44;5156989;28;20048;-91
2023/01/07 04:59:45;;;;;;;5.72;5.20;;;;;;;7.96;100.00;101307.91;5157349;28;20503;-91
2023/01/07 05:02:16;;;;;;;4.45;4.15;;;;;;;7.74;100.00;101261.88;5156565;28;20023;-91
2023/01/07 05:04:46;;;;;;;7.97;4.50;;;;;;;8.17;100.00;101328.09;5156989;28;20031;-91
2023/01/07 05:07:16;;;;;;;5.35;4.65;;;;;;;7.30;100.00;101185.94;5139955;28;20441;-91
2023/01/07 05:09:47;;;;;;;4.38;4.03;;;;;;;8.54;100.00;101396.94;5140163;28;20031;-90
2023/01/07 05:12:17;;;;;;;3.30;3.20;;;;;;;7.55;100.00;101263.75;5156608;28;20396;-90
2023/01/07 05:14:48;;;;;;;4.50;4.20;;;;;;;7.61;100.00;101251.28;5139338;28;20031;-91
2023/01/07 05:17:18;;;;;;;5.13;4.22;;;;;;;7.74;100.00;101251.94;5138386;28;20148;-91
2023/01/07 05:19:49;;;;;;;3.33;3.22;;;;;;;8.18;100.00;101314.41;5156015;28;20508;-90
2023/01/07 05:22:19;;;;;;;3.88;3.65;;;;;;;8.57;100.00;101393.78;5154884;28;20011;-90
2023/01/07 05:24:52;;;;;;;4.68;4.13;;;;;;;7.91;100.00;101262.84;5138366;28;20054;-89
2023/01/07 05:27:25;;;;;;;3.20;3.05;;;;;;;6.85;100.00;101086.16;5155014;28;20027;-91
2023/01/07 05:29:55;;;;;;;2.95;2.78;;;;;;;6.44;100.00;101051.94;5138453;28;20033;-91
2023/01/07 05:32:28;;;;;;;3.25;3.05;;;;;;;8.56;100.00;101381.38;5138729;28;20106;-90
2023/01/07 05:34:59;;;;;;;3.78;3.40;;;;;;;8.56;100.00;101367.91;5138398;28;20030;-91
2023/01/07 05:37:29;;;;;;;3.50;3.20;;;;;;;8.30;100.00;101333.28;5154848;28;20184;-90
2023/01/07 05:40:06;;;;;;;2.90;2.80;;;;;;;7.40;100.00;101198.84;5155121;28;20022;-90
2023/01/07 05:42:36;;;;;;;3.75;3.45;;;;;;;8.50;100.00;101363.44;5156247;28;20022;-90
2023/01/07 05:45:07;;;;;;;2.58;2.47;;;;;;;8.54;100.00;101355.72;5156534;28;20035;-92
2023/01/07 05:47:38;;;;;;;3.70;3.50;;;;;;;7.71;100.00;101213.94;5142240;28;20511;-90
2023/01/07 05:50:08;;;;;;;3.30;3.15;;;;;;;8.27;100.00;101301.47;5152665;28;20015;-91
2023/01/07 05:52:39;;;;;;;3.05;2.95;;;;;;;7.91;100.00;101237.84;5163781;28;20031;-91
2023/01/07 05:55:09;;;;;;;2.97;2.80;;;;;;;8.52;100.00;101331.72;5168747;28;20018;-92
2023/01/07 05:57:39;;;;;;;2.88;2.78;;;;;;;8.10;100.00;101269.81;5139490;28;20087;-91
2023/01/07 06:00:10;;;;;;;3.03;2.92;;;;;;;7.71;100.00;101219.31;5138964;28;20027;-91
2023/01/07 06:02:41;;;;;;;2.60;2.50;;;;;;;7.65;100.00;101199.53;5155318;28;20053;-90
2023/01/07 06:05:11;;;;;;;3.10;2.90;;;;;;;7.42;100.00;101199.44;5156399;28;20045;-92
2023/01/07 06:07:42;;;;;;;3.40;3.13;;;;;;;7.87;100.00;101240.16;5154720;28;20027;-91
2023/01/07 06:10:13;;;;;;;4.72;2.92;;;;;;;8.42;100.00;101323.41;5155478;28;20031;-91
2023/01/07 06:12:43;;;;;;;3.33;2.72;;;;;;;7.25;100.00;101128.56;5155656;28;20403;-90
2023/01/07 06:15:14;;;;;;;3.03;2.92;;;;;;;7.04;100.00;101116.47;5138170;28;20023;-90
2023/01/07 06:17:44;;;;;;;2.90;2.65;;;;;;;8.40;100.00;101344.31;5155966;28;20031;-92
2023/01/07 06:20:15;;;;;;;5.88;2.70;;;;;;;8.38;100.00;101347.25;5154954;28;20037;-91
2023/01/07 06:22:45;;;;;;;2.75;2.65;;;;;;;7.96;100.00;101249.56;5155771;28;20097;-91
2023/01/07 06:25:16;;;;;;;2.88;2.78;;;;;;;7.39;100.00;101160.41;5140015;28;20121;-92
2023/01/07 06:27:46;;;;;;;3.85;3.65;;;;;;;8.21;100.00;101295.13;5156021;28;20038;-91
2023/01/07 06:30:17;;;;;;;3.63;3.30;;;;;;;7.55;100.00;101199.25;5140588;28;20030;-93
2023/01/07 06:32:47;;;;;;;3.22;3.03;;;;;;;6.57;100.00;101056.34;5142425;28;20068;-90
2023/01/07 06:35:18;;;;;;;4.25;4.03;;;;;;;7.98;100.00;101295.88;5134945;28;20043;-89
2023/01/07 06:37:48;;;;;;;3.17;3.08;;;;;;;7.70;100.00;101285.69;5116558;29;20087;-90
2023/01/07 06:40:18;;;;;;;3.30;3.20;;;;;;;7.89;100.00;101297.22;5116385;29;20084;-89
2023/01/07 06:42:49;;;;;;;5.32;4.40;;;;;;;7.63;100.00;101255.38;5134382;28;20019;-92
2023/01/07 06:45:19;;;;;;;4.57;4.13;;;;;;;6.65;100.00;101099.78;5118154;29;20035;-89
2023/01/07 06:47:50;;;;;;;3.97;3.75;;;;;;;7.84;100.00;101286.31;5119373;28;20030;-91
2023/01/07 06:50:20;;;;;;;4.90;3.75;;;;;;;6.36;100.00;101047.69;5155521;28;20030;-90
2023/01/07 06:52:51;;;;;;;3.60;3.50;;;;;;;7.92;100.00;101279.81;5156260;28;20030;-91
2023/01/07 06:55:21;;;;;;;3.67;3.47;;;;;;;6.60;100.00;101088.94;5145706;28;20031;-90
2023/01/07 06:57:52;;;;;;;3.90;3.65;;;;;;;7.73;100.00;101246.78;5171156;28;20054;-90
2023/01/07 07:00:22;;;;;;;3.33;3.13;;;;;;;6.47;100.00;101054.19;5145346;28;20038;-91
2023/01/07 07:02:53;;;;;;;3.28;3.17;;;;;;;7.87;100.00;101275.13;5152550;28;20550;-90
2023/01/07 07:05:23;;;;;;;3.28;3.17;;;;;;;7.30;100.00;101196.69;5144060;28;20030;-91
2023/01/07 07:07:54;;;;;;;3.45;3.22;;;;;;;7.90;100.00;101277.34;5187369;28;20412;-91
2023/01/07 07:10:24;;;;;;;3.22;3.13;;;;;;;5.96;100.00;100982.16;5198905;28;20042;-90
2023/01/07 07:12:54;;;;;;;3.67;3.47;;;;;;;6.92;100.00;101108.38;5132021;28;20024;-91
2023/01/07 07:15:25;;;;;;;3.53;3.40;;;;;;;7.47;100.00;101174.59;5135852;29;20066;-91
2023/01/07 07:17:55;;;;;;;3.30;3.20;;;;;;;6.74;100.00;101082.34;5149604;28;20109;-90
2023/01/07 07:20:26;;;;;;;3.58;3.38;;;;;;;6.93;100.00;101098.44;5139051;28;20294;-88
2023/01/07 07:22:56;;;;;;;3.05;2.95;;;;;;;8.18;100.00;101267.84;5145160;28;20113;-90
2023/01/07 07:25:27;;;;;;;3.85;3.45;;;;;;;7.51;100.00;101160.44;5144426;28;20027;-88
2023/01/07 07:27:57;;;;;;;6.63;3.90;;;;;;;8.22;100.00;101260.97;5193054;28;20031;-89
2023/01/07 07:30:28;;;;;;;3.05;2.90;;;;;;;6.53;100.00;100996.94;5174631;28;20023;-90
2023/01/07 07:33:03;;;;;;;2.72;2.58;;;;;;;7.93;100.00;101212.38;5179311;28;20019;-91
2023/01/07 07:35:34;;;;;;;2.63;2.53;;;;;;;7.19;100.00;101114.22;5153528;28;20026;-91
2023/01/07 07:38:04;;;;;;;3.53;3.33;;;;;;;8.36;100.00;101275.91;5148638;28;20050;-90
2023/01/07 07:40:35;;;;;;;3.75;3.38;;;;;;;8.38;100.00;101250.38;5146848;28;20051;-90
2023/01/07 07:43:06;;;;;;;3.25;2.92;;;;;;;8.41;100.00;101282.19;5157700;28;20036;-91
2023/01/07 07:45:36;;;;;;;3.50;3.30;;;;;;;7.75;100.00;101172.13;5159526;28;20059;-90
2023/01/07 07:48:08;;;;;;;3.60;3.50;;;;;;;6.75;100.00;101011.50;5187392;28;20038;-91
2023/01/07 07:50:38;;;;;;;3.50;3.40;;;;;;;7.95;100.00;101177.19;5155727;28;20022;-91
2023/01/07 07:53:10;;;;;;;2.88;2.67;;;;;;;7.70;100.00;101153.97;5194984;28;20023;-91
2023/01/07 07:55:40;;;;;;;2.67;2.58;;;;;;;7.45;100.00;101108.47;5159063;28;20014;-90
2023/01/07 07:58:11;;;;;;;3.70;3.58;;;;;;;8.34;100.00;101216.09;5154057;28;20026;-90
2023/01/07 08:00:41;;;;;;;3.67;3.47;;;;;;;8.49;100.00;101238.00;5166122;28;20019;-90
2023/01/07 08:03:12;;;;;;;3.25;3.05;;;;;;;7.16;100.00;101017.16;5157762;28;20016;-90
2023/01/07 08:05:43;;;;;;;10.07;3.03;;;;;;;6.66;100.00;100932.38;5148917;28;20478;-90
2023/01/07 08:08:14;;;;;;;3.75;3.38;;;;;;;8.19;100.00;101162.72;5148370;28;20487;-89
2023/01/07 08:10:44;;;;;;;3.08;2.97;;;;;;;7.47;100.00;101072.47;5162806;28;20034;-90
2023/01/07 08:13:15;;;;;;;3.17;2.95;;;;;;;7.33;100.00;101018.94;5145306;28;20060;-91
2023/01/07 08:15:46;;;;;;;3.92;3.80;;;;;;;8.23;100.00;101169.25;5145678;28;20384;-89
2023/01/07 08:18:17;;;;;;;3.97;3.78;;;;;;;8.58;100.00;101223.13;5144261;28;20028;-88
2023/01/07 08:20:49;;;;;;;3.95;3.78;;;;;;;7.30;100.00;101023.94;5143374;28;20351;-89
2023/01/07 08:23:19;;;;;;;2.75;2.65;;;;;;;7.55;100.00;101047.94;5142687;28;20085;-90
2023/01/07 08:25:49;;;;;;;3.47;3.38;;;;;;;8.31;100.00;101181.56;5146684;28;20481;-90
2023/01/07 08:28:20;;;;;;;2.90;2.80;;;;;;;8.65;100.00;101236.50;5185024;28;20094;-90
2023/01/07 08:30:50;;;;;;;3.35;3.25;;;;;;;8.32;100.00;101161.69;5158157;28;20027;-90
2023/01/07 08:33:21;;;;;;;2.97;2.83;;;;;;;7.81;100.00;101060.94;5144155;28;20059;-89
2023/01/07 08:35:51;;;;;;;3.28;3.08;;;;;;;8.74;100.00;101219.72;5147669;28;20030;-90
2023/01/07 08:38:22;;;;;;;3.35;3.25;;;;;;;8.01;100.00;101074.06;5144975;28;20023;-90
2023/01/07 08:40:53;;;;;;;3.60;3.40;;;;;;;8.82;100.00;101212.34;5145832;28;20027;-91
2023/01/07 08:43:23;;;;;;;4.60;4.20;;;;;;;7.84;100.00;101038.16;5151011;28;20091;-91
2023/01/07 08:45:54;;;;;;;4.93;4.40;;;;;;;8.68;100.00;101152.53;5140485;28;20092;-91
2023/01/07 08:48:24;;;;;;;4.47;4.18;;;;;;;8.46;100.00;101122.72;5138833;28;20026;-91
2023/01/07 08:50:55;;;;;;;6.68;4.03;;;;;;;8.48;100.00;101104.47;5155753;28;20027;-91
2023/01/07 08:53:25;;;;;;;4.28;4.03;;;;;;;7.72;100.00;100984.41;5155004;28;20023;-92
2023/01/07 08:55:55;;;;;;;3.95;3.75;;;;;;;8.99;100.00;101164.78;5143208;28;20041;-92
2023/01/07 08:58:26;;;;;;;3.20;3.00;;;;;;;9.04;100.00;101173.78;5148885;28;20083;-90
2023/01/07 09:01:01;;;;;;;3.53;3.42;;;;;;;8.52;100.00;101099.44;5133471;28;20011;-89
2023/01/07 09:03:33;;;;;;;2.97;2.80;;;;;;;8.24;100.00;101044.47;5148468;28;20099;-90
2023/01/07 09:06:03;;;;;;;3.17;2.97;;;;;;;9.20;100.00;101191.09;5133246;28;20018;-89
2023/01/07 09:08:34;;;;;;;3.60;3.40;;;;;;;8.81;100.00;101098.44;5124699;28;20062;-90
2023/01/07 09:11:04;;;;;;;2.60;2.50;;;;;;;9.28;100.00;101144.06;5134940;29;20157;-90
2023/01/07 09:13:35;;;;;;;2.90;2.80;;;;;;;8.12;100.00;100953.00;5136613;29;20026;-90
2023/01/07 09:16:06;;;;;;;2.90;2.80;;;;;;;9.37;100.00;101146.16;5135808;29;20034;-89
2023/01/07 09:18:36;;;;;;;2.90;2.80;;;;;;;9.42;100.00;101138.16;5136328;28;20058;-89
2023/01/07 09:21:06;;;;;;;3.05;2.95;;;;;;;9.11;100.00;101093.66;5119045;29;20035;-91
2023/01/07 09:23:37;;;;;;;3.38;3.28;;;;;;;9.21;100.00;101109.19;5136527;29;20029;-90
2023/01/07 09:26:07;;;;;;;2.90;2.80;;;;;;;9.39;100.00;101135.94;5121706;29;20035;-89
2023/01/07 09:28:38;;;;;;;3.95;3.30;;;;;;;8.63;100.00;101015.16;5143390;28;20030;-90
2023/01/07 09:31:08;;;;;;;2.88;2.78;;;;;;;8.52;100.00;101035.66;5129143;28;20019;-90
2023/01/07 09:33:39;;;;;;;2.88;2.78;;;;;;;8.92;100.00;101072.53;5148028;28;20091;-91
2023/01/07 09:36:10;;;;;;;3.90;3.47;;;;;;;9.26;100.00;101111.16;5144029;28;20035;-89
2023/01/07 09:38:40;;;;;;;3.22;3.13;;;;;;;9.26;100.00;101114.66;5120852;28;20500;-90
2023/01/07 09:41:34;;;;;;;2.95;2.85;;;;;;;9.25;100.00;101125.69;5136290;28;20039;-90
2023/01/07 09:44:48;;;;;;;2.95;2.85;;;;;;;9.25;100.00;101107.63;5136041;29;20392;-90
2023/01/07 09:47:21;;;;;;;3.47;3.30;;;;;;;8.54;100.00;100978.91;5135418;28;20047;-92
2023/01/07 09:50:00;;;;;;;3.08;2.97;;;;;;;8.63;100.00;100999.00;5135725;29;20025;-89
2023/01/07 09:52:37;;;;;;;3.00;2.90;;;;;;;9.21;100.00;101078.75;5135896;28;20035;-89
2023/01/07 09:55:31;;;;;;;3.22;3.13;;;;;;;9.30;100.00;101091.56;5136955;28;20023;-91
2023/01/07 09:58:02;;;;;;;3.83;3.63;;;;;;;7.76;100.00;100837.72;5137798;28;20023;-91
2023/01/07 10:00:37;;;;;;;2.80;2.60;;;;;;;8.31;100.00;100923.25;5136471;29;20034;-92
2023/01/07 10:03:23;;;;;;;3.05;2.95;;;;;;;9.43;100.00;101076.97;5126443;28;20034;-93
2023/01/07 10:06:12;;;;;;;2.75;2.65;;;;;;;9.16;100.00;101022.88;5141252;29;20035;-92
2023/01/07 10:08:50;;;;;;;2.53;2.50;;;;;;;9.51;100.00;101073.91;5115487;28;20042;-91
2023/01/07 10:11:39;;;;;;;3.05;2.85;;;;;;;9.17;100.00;101000.28;5110806;29;20050;-91
2023/01/07 10:14:33;;;;;;;6.22;3.17;;;;;;;9.27;100.00;100995.03;5133986;28;20030;-91
2023/01/07 10:17:20;;;;;;;2.70;2.60;;;;;;;9.67;100.00;101058.78;5147011;28;20026;-90
2023/01/07 10:20:08;;;;;;;2.72;2.60;;;;;;;9.39;100.00;101006.56;5156536;28;20057;-91
2023/01/07 10:25:27;;;;;;;2.67;2.58;;;;;;;9.66;100.00;101049.06;5188035;28;20046;-70
2023/01/07 10:28:03;;;;;;;2.95;2.83;;;;;;;9.65;100.00;101047.41;5166339;28;20021;-64
2023/01/07 10:30:41;;;;;;;2.63;2.42;;;;;;;9.65;100.00;101039.31;5183778;28;20029;-65
2023/01/07 10:33:24;;;;;;;2.38;2.35;;;;;;;9.60;100.00;101034.66;5182905;28;20018;-65
2023/01/07 10:36:18;;;;;;;2.80;2.70;;;;;;;9.65;100.00;101042.03;5183512;28;20091;-68
2023/01/07 10:39:14;;;;;;;3.05;2.85;;;;;;;9.64;100.00;101035.81;5183932;28;20513;-64
2023/01/07 10:42:01;;;;;;;2.38;2.28;;;;;;;9.63;100.00;101027.97;5152733;28;20323;-66
2023/01/07 10:45:00;;;;;;;2.72;2.63;;;;;;;9.70;100.00;101018.66;5183154;28;20018;-65
2023/01/07 10:47:51;;;;;;;2.80;2.60;;;;;;;9.79;100.00;101019.06;5182830;28;20114;-65
2023/01/07 10:50:43;;;;;;;2.75;2.58;;;;;;;9.88;100.00;101004.09;5183235;28;20108;-66
2023/01/07 10:53:25;;;;;;;3.15;2.83;;;;;;;9.97;100.00;100997.22;5165147;28;20029;-65
2023/01/07 10:56:52;;;;;;;2.10;2.10;;;;;;;10.04;100.00;100991.63;5182898;28;20109;-70
2023/01/07 10:59:24;;;;;;;3.33;3.03;;;;;;;9.90;100.00;100958.78;5080918;29;20028;-66
2023/01/07 11:01:57;;;;;;;2.65;2.55;;;;;;;10.04;100.00;100965.47;5064655;29;20401;-66
2023/01/07 11:04:27;;;;;;;2.70;2.60;;;;;;;10.01;100.00;100949.78;5138317;28;20041;-66
2023/01/07 11:07:03;;;;;;;3.60;3.40;;;;;;;10.02;100.00;100946.03;5183089;28;20079;-65
2023/01/07 11:09:39;;;;;;;3.45;3.25;;;;;;;10.06;100.00;100947.16;5188707;28;20032;-65
2023/01/07 11:12:31;;;;;;;3.08;2.60;;;;;;;10.05;100.00;100948.22;5174888;28;20025;-65
2023/01/07 11:15:07;;;;;;;4.78;2.72;;;;;;;10.06;100.00;100935.56;5192632;28;20108;-65
2023/01/07 11:17:43;;;;;;;3.65;3.55;;;;;;;10.13;100.00;100936.16;5186109;28;20018;-66
2023/01/07 11:20:48;;;;;;;2.50;2.40;;;;;;;10.22;100.00;100920.38;5176543;28;20084;-65
2023/01/07 11:23:32;;;;;;;8.73;3.53;;;;;;;10.27;100.00;100920.44;5197312;28;20049;-65
2023/01/07 11:26:05;;;;;;;2.70;2.60;;;;;;;10.35;100.00;100911.91;5197947;28;20025;-65
2023/01/07 11:28:42;;;;;;;2.92;2.72;;;;;;;10.44;100.00;100904.97;5184377;28;20061;-65
2023/01/07 11:31:12;;;;;;;2.30;2.20;;;;;;;10.51;100.00;100904.78;5182493;28;20018;-65
2023/01/07 11:33:49;;;;;;;2.58;2.47;;;;;;;10.32;100.00;100848.44;5181739;28;20018;-66
2023/01/07 11:36:37;;;;;;;2.70;2.60;;;;;;;10.71;100.00;100894.16;5182739;28;20025;-70
2023/01/07 11:39:10;;;;;;;2.80;2.70;;;;;;;10.77;100.00;100888.56;5182740;28;20022;-65
2023/01/07 11:41:51;;;;;;;2.75;2.65;;;;;;;10.85;100.00;100892.69;5182501;28;20033;-66
2023/01/07 11:44:22;;;;;;;5.38;3.72;;;;;;;10.93;100.00;100889.53;5182524;28;20470;-68
2023/01/07 11:46:53;;;;;;;2.55;2.45;;;;;;;10.99;100.00;100874.13;5172544;28;20104;-66
2023/01/07 11:49:27;;;;;;;2.70;2.60;;;;;;;11.00;100.00;100865.78;5190651;28;20281;-67
2023/01/07 11:51:58;;;;;;;2.30;2.20;;;;;;;11.10;100.00;100865.88;5198699;28;20482;-65
2023/01/07 11:54:30;;;;;;;2.15;2.05;;;;;;;11.14;100.00;100866.16;5202671;28;20101;-71
2023/01/07 11:57:25;;;;;;;2.72;2.50;;;;;;;11.14;100.00;100861.56;5203097;28;20099;-66
2023/01/07 12:00:27;;;;;;;2.35;2.33;;;;;;;11.15;100.00;100852.38;5203351;28;20036;-65
2023/01/07 12:03:08;;;;;;;2.10;2.08;;;;;;;11.11;100.00;100818.84;5186468;28;20497;-67
2023/01/07 12:05:40;;;;;;;7.45;3.08;;;;;;;11.24;100.00;100841.09;5206546;28;20022;-66
2023/01/07 12:08:19;;;;;;;3.50;3.22;;;;;;;11.27;100.00;100827.03;5200199;28;20057;-66